Weather at Minister Pistarini International Airport

Public forecast

Using degrees Celsius for public forecast. Weather courtesy of forecast.io.

Current aviation weather report (METAR) for Minister Pistarini International Airport

Report is more than 6 hours old.

2022/11/14 15:00 (retrieved 2 years ago)

SAEZ 141500Z 24013KT 9999 OVC018 18/14 Q1004 BECMG 25015G25KT

Aviation forecast (TAF) for Minister Pistarini International Airport

Forecast is more than 12 hours old.

2023/02/22 18:00 (retrieved 1 year ago)

TAF SAEZ 221700Z 2218/2318 36010KT CAVOK TX34/2218Z TN20/2309Z BECMG 2302/2304 VRB03KT BECMG 2313/2315 30015KT